Roncesvalles Navarra

latitud = 43° 00' 31''N | longitud = 001° 19' 32''W
940 metros sobre el nivel del mar | datos mensuales

Fecha, hora, temperatura, viento dirección y velocidad, humedad y presión.

  • 21-06-2018 22:00:00 | 15.40°C | Norte |18.00 km/h | 100.00% | 0.00 hPa
  • 21-06-2018 21:00:00 | 15.60°C | Norte |18.00 km/h | 100.00% | 0.00 hPa
  • 21-06-2018 20:00:00 | 15.80°C | Norte |18.00 km/h | 100.00% | 0.00 hPa
  • 21-06-2018 19:00:00 | 16.60°C | Norte |17.00 km/h | 100.00% | 0.00 hPa
  • 21-06-2018 18:00:00 | 16.70°C | Norte |17.00 km/h | 100.00% | 0.00 hPa
  • 21-06-2018 17:00:00 | 17.40°C | Norte |19.00 km/h | 100.00% | 0.00 hPa
  • 21-06-2018 16:00:00 | 19.00°C | Norte |18.00 km/h | 96.00% | 0.00 hPa
  • 21-06-2018 15:00:00 | 20.20°C | Norte |19.00 km/h | 90.00% | 0.00 hPa
  • 21-06-2018 14:00:00 | 22.70°C | Norte |13.00 km/h | 78.00% | 0.00 hPa
  • 21-06-2018 13:00:00 | 24.50°C | Norte |12.00 km/h | 59.00% | 0.00 hPa
  • 21-06-2018 12:00:00 | 24.90°C | Nordeste |8.00 km/h | 60.00% | 0.00 hPa
  • 21-06-2018 11:00:00 | 25.10°C | Sudeste |3.00 km/h | 52.00% | 0.00 hPa
  • 21-06-2018 10:00:00 | 22.30°C | Sur |3.00 km/h | 75.00% | 0.00 hPa
  • 21-06-2018 09:00:00 | 19.20°C | Calma |0.00 km/h | 92.00% | 0.00 hPa
  • 21-06-2018 08:00:00 | 15.70°C | Calma |0.00 km/h | 100.00% | 0.00 hPa
  • 21-06-2018 07:00:00 | 15.00°C | Calma |0.00 km/h | 100.00% | 0.00 hPa
  • 21-06-2018 06:00:00 | 14.90°C | Calma |0.00 km/h | 100.00% | 0.00 hPa
  • 21-06-2018 05:00:00 | 15.30°C | Calma |0.00 km/h | 100.00% | 0.00 hPa
  • 21-06-2018 04:00:00 | 16.10°C | Calma |0.00 km/h | 100.00% | 0.00 hPa
  • 21-06-2018 03:00:00 | 16.40°C | Calma |0.00 km/h | 100.00% | 0.00 hPa
  • 21-06-2018 02:00:00 | 16.90°C | Noroeste |2.00 km/h | 100.00% | 0.00 hPa
  • 21-06-2018 01:00:00 | 17.10°C | Norte |2.00 km/h | 100.00% | 0.00 hPa
  • 21-06-2018 00:00:00 | 17.20°C | Calma |0.00 km/h | 97.00% | 0.00 hPa
  • 20-06-2018 23:00:00 | 17.90°C | Calma |0.00 km/h | 96.00% | 0.00 hPa